KMVE/MVE METAR and TAF weather

Enter ICAO airport designator
Station Type Date Time Source
KMVE METAR 2022/01/26 14:55 UTC NOAA

KMVE 261455Z AUTO 22012KT 10SM CLR M17/M22 A3004 RMK AO2


Station Type Date Time Source
KMVE Decoded METAR 2022/01/26 14:55 UTC NOAA

Montevideo, Montevideo-Chippewa County Airport, MN, United States (KMVE) 44-58N 095-43W
Jan 26, 2022 - 09:55 AM EST / 2022.01.26 1455 UTC
Wind: from the SW (220 degrees) at 14 MPH (12 KT):0
Visibility: 10 mile(s):0
Sky conditions: clear
Temperature: 1 F (-17 C)
Windchill: -18 F (-28 C):2
Dew Point: -7 F (-22 C)
Relative Humidity: 65%
Pressure (altimeter): 30.04 in. Hg (1017 hPa)
ob: KMVE 261455Z AUTO 22012KT 10SM CLR M17/M22 A3004 RMK AO2
cycle: 15

Station Type Date Time Source
KMVE TAF UTC NOAA

Error!

Example: see airport list